sensor_id;sensor_type;location;lat;lon;timestamp;temperature;humidity
21261;DHT22;10788;47.930;9.766;2023-06-26T00:02:10;18.40;99.90
21261;DHT22;10788;47.930;9.766;2023-06-26T00:04:35;18.30;99.90
21261;DHT22;10788;47.930;9.766;2023-06-26T00:07:06;18.20;99.90
21261;DHT22;10788;47.930;9.766;2023-06-26T00:09:32;18.20;99.90
21261;DHT22;10788;47.930;9.766;2023-06-26T00:11:58;18.20;99.90
21261;DHT22;10788;47.930;9.766;2023-06-26T00:14:24;18.10;99.90
21261;DHT22;10788;47.930;9.766;2023-06-26T00:16:51;18.10;99.90
21261;DHT22;10788;47.930;9.766;2023-06-26T00:19:17;18.10;99.90
21261;DHT22;10788;47.930;9.766;2023-06-26T00:21:43;18.10;99.90
21261;DHT22;10788;47.930;9.766;2023-06-26T00:24:16;18.20;99.90
21261;DHT22;10788;47.930;9.766;2023-06-26T00:26:43;18.10;99.90
21261;DHT22;10788;47.930;9.766;2023-06-26T00:29:08;18.20;99.90
21261;DHT22;10788;47.930;9.766;2023-06-26T00:31:34;18.10;99.90
21261;DHT22;10788;47.930;9.766;2023-06-26T00:34:03;18.10;99.90
21261;DHT22;10788;47.930;9.766;2023-06-26T00:36:29;18.10;99.90
21261;DHT22;10788;47.930;9.766;2023-06-26T00:38:54;18.10;99.90
21261;DHT22;10788;47.930;9.766;2023-06-26T00:41:20;18.10;99.90
21261;DHT22;10788;47.930;9.766;2023-06-26T00:43:45;18.20;99.90
21261;DHT22;10788;47.930;9.766;2023-06-26T00:46:15;18.20;99.90
21261;DHT22;10788;47.930;9.766;2023-06-26T00:48:43;18.10;99.90
21261;DHT22;10788;47.930;9.766;2023-06-26T00:51:08;18.10;99.90
21261;DHT22;10788;47.930;9.766;2023-06-26T00:53:35;18.00;99.90
21261;DHT22;10788;47.930;9.766;2023-06-26T00:56:03;18.00;99.90
21261;DHT22;10788;47.930;9.766;2023-06-26T00:58:30;18.00;99.90
21261;DHT22;10788;47.930;9.766;2023-06-26T01:00:55;18.00;99.90
21261;DHT22;10788;47.930;9.766;2023-06-26T01:03:23;18.00;99.90
21261;DHT22;10788;47.930;9.766;2023-06-26T01:05:51;17.80;99.90
21261;DHT22;10788;47.930;9.766;2023-06-26T01:08:18;17.70;99.90
21261;DHT22;10788;47.930;9.766;2023-06-26T01:10:44;17.60;99.90
21261;DHT22;10788;47.930;9.766;2023-06-26T01:13:12;17.50;99.90
21261;DHT22;10788;47.930;9.766;2023-06-26T01:15:38;17.50;99.90
21261;DHT22;10788;47.930;9.766;2023-06-26T01:18:05;17.40;99.90
21261;DHT22;10788;47.930;9.766;2023-06-26T01:20:32;17.50;99.90
21261;DHT22;10788;47.930;9.766;2023-06-26T01:25:52;17.40;99.90
21261;DHT22;10788;47.930;9.766;2023-06-26T01:28:22;17.40;99.90
21261;DHT22;10788;47.930;9.766;2023-06-26T01:30:48;17.40;99.90
21261;DHT22;10788;47.930;9.766;2023-06-26T01:33:14;17.40;99.90
21261;DHT22;10788;47.930;9.766;2023-06-26T01:35:40;17.30;99.90
21261;DHT22;10788;47.930;9.766;2023-06-26T01:38:17;17.30;99.90
21261;DHT22;10788;47.930;9.766;2023-06-26T01:40:43;17.30;99.90
21261;DHT22;10788;47.930;9.766;2023-06-26T01:46:05;17.20;99.90
21261;DHT22;10788;47.930;9.766;2023-06-26T01:48:37;17.20;99.90
21261;DHT22;10788;47.930;9.766;2023-06-26T01:51:05;17.20;99.90
21261;DHT22;10788;47.930;9.766;2023-06-26T01:53:38;17.20;99.90
21261;DHT22;10788;47.930;9.766;2023-06-26T01:56:10;17.20;99.90
21261;DHT22;10788;47.930;9.766;2023-06-26T01:58:43;17.10;99.90
21261;DHT22;10788;47.930;9.766;2023-06-26T02:01:10;17.10;99.90
21261;DHT22;10788;47.930;9.766;2023-06-26T02:03:36;17.00;99.90
21261;DHT22;10788;47.930;9.766;2023-06-26T02:06:02;16.90;99.90
21261;DHT22;10788;47.930;9.766;2023-06-26T02:08:28;16.90;99.90
21261;DHT22;10788;47.930;9.766;2023-06-26T02:10:53;17.00;99.90
21261;DHT22;10788;47.930;9.766;2023-06-26T02:13:19;16.90;99.90
21261;DHT22;10788;47.930;9.766;2023-06-26T02:15:44;17.00;99.90
21261;DHT22;10788;47.930;9.766;2023-06-26T02:18:10;16.90;99.90
21261;DHT22;10788;47.930;9.766;2023-06-26T02:20:35;17.00;99.90
21261;DHT22;10788;47.930;9.766;2023-06-26T02:23:01;16.90;99.90
21261;DHT22;10788;47.930;9.766;2023-06-26T02:25:27;16.90;99.90
21261;DHT22;10788;47.930;9.766;2023-06-26T02:27:52;16.90;99.90
21261;DHT22;10788;47.930;9.766;2023-06-26T02:30:19;16.90;99.90
21261;DHT22;10788;47.930;9.766;2023-06-26T02:32:44;16.90;99.90
21261;DHT22;10788;47.930;9.766;2023-06-26T02:35:10;16.90;99.90
21261;DHT22;10788;47.930;9.766;2023-06-26T02:37:36;16.90;99.90
21261;DHT22;10788;47.930;9.766;2023-06-26T02:40:02;17.00;99.90
21261;DHT22;10788;47.930;9.766;2023-06-26T02:42:29;16.90;99.90
21261;DHT22;10788;47.930;9.766;2023-06-26T02:44:55;16.90;99.90
21261;DHT22;10788;47.930;9.766;2023-06-26T02:47:20;16.80;99.90
21261;DHT22;10788;47.930;9.766;2023-06-26T02:49:46;16.90;99.90
21261;DHT22;10788;47.930;9.766;2023-06-26T02:52:11;16.90;99.90
21261;DHT22;10788;47.930;9.766;2023-06-26T02:54:37;16.90;99.90
21261;DHT22;10788;47.930;9.766;2023-06-26T02:57:03;16.90;99.90
21261;DHT22;10788;47.930;9.766;2023-06-26T02:59:28;16.90;99.90
21261;DHT22;10788;47.930;9.766;2023-06-26T03:01:54;16.90;99.90
21261;DHT22;10788;47.930;9.766;2023-06-26T03:04:19;17.00;99.90
21261;DHT22;10788;47.930;9.766;2023-06-26T03:06:47;17.00;99.90
21261;DHT22;10788;47.930;9.766;2023-06-26T03:09:12;17.00;99.90
21261;DHT22;10788;47.930;9.766;2023-06-26T03:11:38;17.00;99.90
21261;DHT22;10788;47.930;9.766;2023-06-26T03:14:03;17.00;99.90
21261;DHT22;10788;47.930;9.766;2023-06-26T03:16:29;17.00;99.90
21261;DHT22;10788;47.930;9.766;2023-06-26T03:18:54;17.00;99.90
21261;DHT22;10788;47.930;9.766;2023-06-26T03:21:20;17.00;99.90
21261;DHT22;10788;47.930;9.766;2023-06-26T03:23:46;17.10;99.90
21261;DHT22;10788;47.930;9.766;2023-06-26T03:26:11;17.00;99.90
21261;DHT22;10788;47.930;9.766;2023-06-26T03:28:40;16.90;99.90
21261;DHT22;10788;47.930;9.766;2023-06-26T03:31:06;17.00;99.90
21261;DHT22;10788;47.930;9.766;2023-06-26T03:33:31;17.00;99.90
21261;DHT22;10788;47.930;9.766;2023-06-26T03:35:57;17.00;99.90
21261;DHT22;10788;47.930;9.766;2023-06-26T03:38:24;17.00;99.90
21261;DHT22;10788;47.930;9.766;2023-06-26T03:40:51;17.00;99.90
21261;DHT22;10788;47.930;9.766;2023-06-26T03:43:17;17.00;99.90
21261;DHT22;10788;47.930;9.766;2023-06-26T03:45:43;17.00;99.90
21261;DHT22;10788;47.930;9.766;2023-06-26T03:48:08;17.00;99.90
21261;DHT22;10788;47.930;9.766;2023-06-26T03:50:34;17.00;99.90
21261;DHT22;10788;47.930;9.766;2023-06-26T03:52:59;17.00;99.90
21261;DHT22;10788;47.930;9.766;2023-06-26T03:55:25;17.00;99.90
21261;DHT22;10788;47.930;9.766;2023-06-26T03:57:51;17.00;99.90
21261;DHT22;10788;47.930;9.766;2023-06-26T04:00:16;17.00;99.90
21261;DHT22;10788;47.930;9.766;2023-06-26T04:02:42;17.00;99.90
21261;DHT22;10788;47.930;9.766;2023-06-26T04:05:08;17.10;99.90
21261;DHT22;10788;47.930;9.766;2023-06-26T04:07:33;17.10;99.90
21261;DHT22;10788;47.930;9.766;2023-06-26T04:10:00;17.10;99.90
21261;DHT22;10788;47.930;9.766;2023-06-26T04:12:26;17.10;99.90
21261;DHT22;10788;47.930;9.766;2023-06-26T04:14:51;17.10;99.90
21261;DHT22;10788;47.930;9.766;2023-06-26T04:17:17;17.20;99.90
21261;DHT22;10788;47.930;9.766;2023-06-26T04:19:42;17.20;99.90
21261;DHT22;10788;47.930;9.766;2023-06-26T04:22:08;17.20;99.90
21261;DHT22;10788;47.930;9.766;2023-06-26T04:24:33;17.20;99.90
21261;DHT22;10788;47.930;9.766;2023-06-26T04:26:59;17.30;99.90
21261;DHT22;10788;47.930;9.766;2023-06-26T04:29:26;17.20;99.90
21261;DHT22;10788;47.930;9.766;2023-06-26T04:31:53;17.30;99.90
21261;DHT22;10788;47.930;9.766;2023-06-26T04:34:26;17.20;99.90
21261;DHT22;10788;47.930;9.766;2023-06-26T04:36:52;17.30;99.90
21261;DHT22;10788;47.930;9.766;2023-06-26T04:39:18;17.20;99.90
21261;DHT22;10788;47.930;9.766;2023-06-26T04:41:44;17.20;99.90
21261;DHT22;10788;47.930;9.766;2023-06-26T04:44:10;17.30;99.90
21261;DHT22;10788;47.930;9.766;2023-06-26T04:46:37;17.30;99.90
21261;DHT22;10788;47.930;9.766;2023-06-26T04:49:02;17.30;99.90
21261;DHT22;10788;47.930;9.766;2023-06-26T04:51:28;17.30;99.90
21261;DHT22;10788;47.930;9.766;2023-06-26T04:53:54;17.40;99.90
21261;DHT22;10788;47.930;9.766;2023-06-26T04:56:20;17.50;99.90
21261;DHT22;10788;47.930;9.766;2023-06-26T04:58:46;17.50;99.90
21261;DHT22;10788;47.930;9.766;2023-06-26T05:01:11;17.60;99.90
21261;DHT22;10788;47.930;9.766;2023-06-26T05:03:39;17.60;99.90
21261;DHT22;10788;47.930;9.766;2023-06-26T05:06:05;17.70;99.90
21261;DHT22;10788;47.930;9.766;2023-06-26T05:08:30;17.80;99.90
21261;DHT22;10788;47.930;9.766;2023-06-26T05:10:56;17.80;99.90
21261;DHT22;10788;47.930;9.766;2023-06-26T05:13:24;17.90;99.90
21261;DHT22;10788;47.930;9.766;2023-06-26T05:15:49;18.00;99.90
21261;DHT22;10788;47.930;9.766;2023-06-26T05:18:15;18.10;99.90
21261;DHT22;10788;47.930;9.766;2023-06-26T05:20:41;18.30;99.90
21261;DHT22;10788;47.930;9.766;2023-06-26T05:23:07;18.40;99.90
21261;DHT22;10788;47.930;9.766;2023-06-26T05:25:33;18.50;99.90
21261;DHT22;10788;47.930;9.766;2023-06-26T05:28:02;18.70;99.90
21261;DHT22;10788;47.930;9.766;2023-06-26T05:30:28;18.80;99.90
21261;DHT22;10788;47.930;9.766;2023-06-26T05:32:54;19.00;99.90
21261;DHT22;10788;47.930;9.766;2023-06-26T05:35:20;19.10;99.90
21261;DHT22;10788;47.930;9.766;2023-06-26T05:37:50;19.30;99.90
21261;DHT22;10788;47.930;9.766;2023-06-26T05:40:17;19.40;99.90
21261;DHT22;10788;47.930;9.766;2023-06-26T05:42:43;19.50;99.90
21261;DHT22;10788;47.930;9.766;2023-06-26T05:45:09;19.70;99.90
21261;DHT22;10788;47.930;9.766;2023-06-26T05:47:35;19.80;99.90
21261;DHT22;10788;47.930;9.766;2023-06-26T05:50:01;19.90;99.90
21261;DHT22;10788;47.930;9.766;2023-06-26T05:52:27;20.00;99.90
21261;DHT22;10788;47.930;9.766;2023-06-26T05:54:53;20.10;99.90
21261;DHT22;10788;47.930;9.766;2023-06-26T05:57:20;20.30;99.90
21261;DHT22;10788;47.930;9.766;2023-06-26T05:59:46;20.40;99.90
21261;DHT22;10788;47.930;9.766;2023-06-26T06:02:12;20.50;99.90
21261;DHT22;10788;47.930;9.766;2023-06-26T06:04:38;20.60;99.90
21261;DHT22;10788;47.930;9.766;2023-06-26T06:07:04;20.80;99.90
21261;DHT22;10788;47.930;9.766;2023-06-26T06:09:30;20.90;99.90
21261;DHT22;10788;47.930;9.766;2023-06-26T06:11:55;21.00;99.90
21261;DHT22;10788;47.930;9.766;2023-06-26T06:14:21;21.10;99.90
21261;DHT22;10788;47.930;9.766;2023-06-26T06:16:46;21.20;99.90
21261;DHT22;10788;47.930;9.766;2023-06-26T06:19:12;21.30;99.90
21261;DHT22;10788;47.930;9.766;2023-06-26T06:21:39;21.40;99.90
21261;DHT22;10788;47.930;9.766;2023-06-26T06:24:05;21.50;99.90
21261;DHT22;10788;47.930;9.766;2023-06-26T06:26:32;21.70;99.90
21261;DHT22;10788;47.930;9.766;2023-06-26T06:28:58;21.90;99.90
21261;DHT22;10788;47.930;9.766;2023-06-26T06:31:23;22.00;99.90
21261;DHT22;10788;47.930;9.766;2023-06-26T06:33:49;22.10;99.90
21261;DHT22;10788;47.930;9.766;2023-06-26T06:36:15;22.20;99.90
21261;DHT22;10788;47.930;9.766;2023-06-26T06:38:43;22.40;99.90
21261;DHT22;10788;47.930;9.766;2023-06-26T06:41:09;22.40;99.90
21261;DHT22;10788;47.930;9.766;2023-06-26T06:43:35;22.50;99.90
21261;DHT22;10788;47.930;9.766;2023-06-26T06:46:01;22.70;99.90
21261;DHT22;10788;47.930;9.766;2023-06-26T06:48:27;22.70;99.90
21261;DHT22;10788;47.930;9.766;2023-06-26T06:50:53;22.90;99.90
21261;DHT22;10788;47.930;9.766;2023-06-26T06:53:18;23.00;99.90
21261;DHT22;10788;47.930;9.766;2023-06-26T06:55:46;23.00;99.90
21261;DHT22;10788;47.930;9.766;2023-06-26T06:58:12;23.10;99.90
21261;DHT22;10788;47.930;9.766;2023-06-26T07:00:38;23.20;99.90
21261;DHT22;10788;47.930;9.766;2023-06-26T07:03:03;23.30;99.90
21261;DHT22;10788;47.930;9.766;2023-06-26T07:05:29;23.30;99.90
21261;DHT22;10788;47.930;9.766;2023-06-26T07:07:55;23.40;99.90
21261;DHT22;10788;47.930;9.766;2023-06-26T07:10:21;23.40;99.90
21261;DHT22;10788;47.930;9.766;2023-06-26T07:12:46;23.50;99.90
21261;DHT22;10788;47.930;9.766;2023-06-26T07:15:12;23.50;99.90
21261;DHT22;10788;47.930;9.766;2023-06-26T07:17:38;23.50;99.90
21261;DHT22;10788;47.930;9.766;2023-06-26T07:20:05;23.50;99.90
21261;DHT22;10788;47.930;9.766;2023-06-26T07:22:33;23.70;99.90
21261;DHT22;10788;47.930;9.766;2023-06-26T07:24:58;23.80;99.90
21261;DHT22;10788;47.930;9.766;2023-06-26T07:27:24;23.80;99.90
21261;DHT22;10788;47.930;9.766;2023-06-26T07:29:49;24.00;99.90
21261;DHT22;10788;47.930;9.766;2023-06-26T07:32:15;24.10;99.90
21261;DHT22;10788;47.930;9.766;2023-06-26T07:34:40;24.10;99.90
21261;DHT22;10788;47.930;9.766;2023-06-26T07:37:06;24.20;99.90
21261;DHT22;10788;47.930;9.766;2023-06-26T07:39:32;24.30;99.90
21261;DHT22;10788;47.930;9.766;2023-06-26T07:41:58;24.40;99.90
21261;DHT22;10788;47.930;9.766;2023-06-26T07:44:26;24.50;99.90
21261;DHT22;10788;47.930;9.766;2023-06-26T07:46:52;24.60;99.90
21261;DHT22;10788;47.930;9.766;2023-06-26T07:49:18;24.70;99.90
21261;DHT22;10788;47.930;9.766;2023-06-26T07:51:43;24.90;99.90
21261;DHT22;10788;47.930;9.766;2023-06-26T07:54:09;24.90;99.90
21261;DHT22;10788;47.930;9.766;2023-06-26T07:57:02;25.00;99.90
21261;DHT22;10788;47.930;9.766;2023-06-26T07:59:29;25.10;99.90
21261;DHT22;10788;47.930;9.766;2023-06-26T08:01:56;25.30;99.90
21261;DHT22;10788;47.930;9.766;2023-06-26T08:04:27;25.30;99.90
21261;DHT22;10788;47.930;9.766;2023-06-26T08:06:56;25.50;99.90
21261;DHT22;10788;47.930;9.766;2023-06-26T08:09:24;25.60;99.90
21261;DHT22;10788;47.930;9.766;2023-06-26T08:11:50;25.60;99.90
21261;DHT22;10788;47.930;9.766;2023-06-26T08:14:16;25.80;99.90
21261;DHT22;10788;47.930;9.766;2023-06-26T08:16:43;25.90;99.90
21261;DHT22;10788;47.930;9.766;2023-06-26T08:19:12;25.90;99.90
21261;DHT22;10788;47.930;9.766;2023-06-26T08:21:39;26.00;99.90
21261;DHT22;10788;47.930;9.766;2023-06-26T08:24:04;26.30;99.90
21261;DHT22;10788;47.930;9.766;2023-06-26T08:26:30;26.50;99.90
21261;DHT22;10788;47.930;9.766;2023-06-26T08:28:56;26.50;99.90
21261;DHT22;10788;47.930;9.766;2023-06-26T08:31:21;26.70;99.90
21261;DHT22;10788;47.930;9.766;2023-06-26T08:33:47;27.00;99.90
21261;DHT22;10788;47.930;9.766;2023-06-26T08:36:13;27.20;99.90
21261;DHT22;10788;47.930;9.766;2023-06-26T08:38:38;27.30;99.90
21261;DHT22;10788;47.930;9.766;2023-06-26T08:41:09;27.30;99.90
21261;DHT22;10788;47.930;9.766;2023-06-26T08:43:35;27.50;99.90
21261;DHT22;10788;47.930;9.766;2023-06-26T08:46:02;27.70;99.90
21261;DHT22;10788;47.930;9.766;2023-06-26T08:48:30;27.80;99.90
21261;DHT22;10788;47.930;9.766;2023-06-26T08:50:57;27.90;99.90
21261;DHT22;10788;47.930;9.766;2023-06-26T08:53:43;27.80;99.90
21261;DHT22;10788;47.930;9.766;2023-06-26T08:56:15;27.80;99.90
21261;DHT22;10788;47.930;9.766;2023-06-26T08:58:42;28.00;99.90
21261;DHT22;10788;47.930;9.766;2023-06-26T09:01:10;28.20;99.90
21261;DHT22;10788;47.930;9.766;2023-06-26T09:03:36;28.30;99.90
21261;DHT22;10788;47.930;9.766;2023-06-26T09:06:02;28.40;99.90
21261;DHT22;10788;47.930;9.766;2023-06-26T09:08:28;28.50;99.90
21261;DHT22;10788;47.930;9.766;2023-06-26T09:10:54;28.60;99.90
21261;DHT22;10788;47.930;9.766;2023-06-26T09:13:20;28.80;99.90
21261;DHT22;10788;47.930;9.766;2023-06-26T09:15:46;29.00;99.90
21261;DHT22;10788;47.930;9.766;2023-06-26T09:18:13;29.00;99.90
21261;DHT22;10788;47.930;9.766;2023-06-26T09:20:38;29.00;99.90
21261;DHT22;10788;47.930;9.766;2023-06-26T09:23:04;28.90;99.90
21261;DHT22;10788;47.930;9.766;2023-06-26T09:25:30;29.20;99.90
21261;DHT22;10788;47.930;9.766;2023-06-26T09:27:56;29.40;99.90
21261;DHT22;10788;47.930;9.766;2023-06-26T09:30:22;29.40;99.90
21261;DHT22;10788;47.930;9.766;2023-06-26T09:32:48;29.70;99.90
21261;DHT22;10788;47.930;9.766;2023-06-26T09:35:16;29.80;99.90
21261;DHT22;10788;47.930;9.766;2023-06-26T09:37:42;29.80;99.90
21261;DHT22;10788;47.930;9.766;2023-06-26T09:40:09;30.00;99.90
21261;DHT22;10788;47.930;9.766;2023-06-26T09:42:35;29.90;99.90
21261;DHT22;10788;47.930;9.766;2023-06-26T09:45:02;29.80;99.90
21261;DHT22;10788;47.930;9.766;2023-06-26T09:47:30;29.60;99.90
21261;DHT22;10788;47.930;9.766;2023-06-26T09:49:57;29.80;99.90
21261;DHT22;10788;47.930;9.766;2023-06-26T09:52:26;29.80;99.90
21261;DHT22;10788;47.930;9.766;2023-06-26T09:55:09;30.00;99.90
21261;DHT22;10788;47.930;9.766;2023-06-26T09:57:35;30.20;99.90
21261;DHT22;10788;47.930;9.766;2023-06-26T10:00:04;30.40;99.90
21261;DHT22;10788;47.930;9.766;2023-06-26T10:02:31;30.40;99.90
21261;DHT22;10788;47.930;9.766;2023-06-26T10:04:56;30.40;99.80
21261;DHT22;10788;47.930;9.766;2023-06-26T10:07:22;30.60;99.70
21261;DHT22;10788;47.930;9.766;2023-06-26T10:09:49;30.40;99.80
21261;DHT22;10788;47.930;9.766;2023-06-26T10:12:27;30.40;99.90
21261;DHT22;10788;47.930;9.766;2023-06-26T10:14:55;30.30;99.50
21261;DHT22;10788;47.930;9.766;2023-06-26T10:17:21;30.30;99.80
21261;DHT22;10788;47.930;9.766;2023-06-26T10:19:50;30.20;99.50
21261;DHT22;10788;47.930;9.766;2023-06-26T10:22:20;30.30;99.60
21261;DHT22;10788;47.930;9.766;2023-06-26T10:24:47;30.30;99.30
21261;DHT22;10788;47.930;9.766;2023-06-26T10:27:19;30.30;99.30
21261;DHT22;10788;47.930;9.766;2023-06-26T10:29:51;30.30;99.50
21261;DHT22;10788;47.930;9.766;2023-06-26T10:32:18;30.50;99.20
21261;DHT22;10788;47.930;9.766;2023-06-26T10:34:45;30.60;98.70
21261;DHT22;10788;47.930;9.766;2023-06-26T10:37:12;30.60;98.60
21261;DHT22;10788;47.930;9.766;2023-06-26T10:39:59;30.70;98.80
21261;DHT22;10788;47.930;9.766;2023-06-26T10:42:35;30.70;97.80
21261;DHT22;10788;47.930;9.766;2023-06-26T10:45:19;30.70;97.90
21261;DHT22;10788;47.930;9.766;2023-06-26T10:47:51;30.70;97.10
21261;DHT22;10788;47.930;9.766;2023-06-26T10:50:22;30.80;97.00
21261;DHT22;10788;47.930;9.766;2023-06-26T10:55:32;31.00;96.80
21261;DHT22;10788;47.930;9.766;2023-06-26T10:57:58;31.00;95.80
21261;DHT22;10788;47.930;9.766;2023-06-26T11:00:24;31.00;95.50
21261;DHT22;10788;47.930;9.766;2023-06-26T11:02:50;31.10;95.40
21261;DHT22;10788;47.930;9.766;2023-06-26T11:05:36;31.20;95.00
21261;DHT22;10788;47.930;9.766;2023-06-26T11:08:09;31.30;94.00
21261;DHT22;10788;47.930;9.766;2023-06-26T11:10:52;31.20;93.90
21261;DHT22;10788;47.930;9.766;2023-06-26T11:13:19;31.30;93.60
21261;DHT22;10788;47.930;9.766;2023-06-26T11:15:46;31.30;94.20
21261;DHT22;10788;47.930;9.766;2023-06-26T11:18:12;31.50;93.30
21261;DHT22;10788;47.930;9.766;2023-06-26T11:20:38;31.60;92.50
21261;DHT22;10788;47.930;9.766;2023-06-26T11:23:04;31.60;91.50
21261;DHT22;10788;47.930;9.766;2023-06-26T11:25:36;31.80;91.70
21261;DHT22;10788;47.930;9.766;2023-06-26T11:28:05;31.60;90.90
21261;DHT22;10788;47.930;9.766;2023-06-26T11:30:31;31.40;91.30
21261;DHT22;10788;47.930;9.766;2023-06-26T11:33:04;31.40;91.70
21261;DHT22;10788;47.930;9.766;2023-06-26T11:35:30;31.50;91.80
21261;DHT22;10788;47.930;9.766;2023-06-26T11:37:56;31.60;90.90
21261;DHT22;10788;47.930;9.766;2023-06-26T11:40:25;31.90;91.00
21261;DHT22;10788;47.930;9.766;2023-06-26T11:42:55;31.90;90.00
21261;DHT22;10788;47.930;9.766;2023-06-26T11:45:21;31.60;89.60
21261;DHT22;10788;47.930;9.766;2023-06-26T11:47:48;31.30;90.50
21261;DHT22;10788;47.930;9.766;2023-06-26T11:50:17;31.30;90.50
21261;DHT22;10788;47.930;9.766;2023-06-26T11:52:44;31.30;90.60
21261;DHT22;10788;47.930;9.766;2023-06-26T11:55:10;31.50;90.90
21261;DHT22;10788;47.930;9.766;2023-06-26T11:57:37;31.70;90.50
21261;DHT22;10788;47.930;9.766;2023-06-26T12:00:15;31.70;90.00
21261;DHT22;10788;47.930;9.766;2023-06-26T12:02:42;31.80;90.20
21261;DHT22;10788;47.930;9.766;2023-06-26T12:05:08;31.60;89.00
21261;DHT22;10788;47.930;9.766;2023-06-26T12:07:34;31.60;90.20
21261;DHT22;10788;47.930;9.766;2023-06-26T12:10:02;31.60;90.30
21261;DHT22;10788;47.930;9.766;2023-06-26T12:12:29;31.70;90.00
21261;DHT22;10788;47.930;9.766;2023-06-26T12:14:57;31.90;90.30
21261;DHT22;10788;47.930;9.766;2023-06-26T12:17:23;32.10;90.10
21261;DHT22;10788;47.930;9.766;2023-06-26T12:19:52;32.20;89.10
21261;DHT22;10788;47.930;9.766;2023-06-26T12:22:18;32.30;89.30
21261;DHT22;10788;47.930;9.766;2023-06-26T12:24:45;32.20;89.30
21261;DHT22;10788;47.930;9.766;2023-06-26T12:27:13;32.20;89.50
21261;DHT22;10788;47.930;9.766;2023-06-26T12:29:41;31.90;88.80
21261;DHT22;10788;47.930;9.766;2023-06-26T12:32:10;31.60;89.00
21261;DHT22;10788;47.930;9.766;2023-06-26T12:34:37;31.50;90.00
21261;DHT22;10788;47.930;9.766;2023-06-26T12:39:54;31.20;90.20
21261;DHT22;10788;47.930;9.766;2023-06-26T12:42:22;31.40;90.00
21261;DHT22;10788;47.930;9.766;2023-06-26T12:44:49;31.40;90.40
21261;DHT22;10788;47.930;9.766;2023-06-26T12:47:16;31.50;90.50
21261;DHT22;10788;47.930;9.766;2023-06-26T12:49:44;31.60;90.40
21261;DHT22;10788;47.930;9.766;2023-06-26T12:52:12;31.80;90.20
21261;DHT22;10788;47.930;9.766;2023-06-26T12:54:40;32.00;90.20
21261;DHT22;10788;47.930;9.766;2023-06-26T12:57:06;31.90;90.20
21261;DHT22;10788;47.930;9.766;2023-06-26T12:59:33;31.80;90.10
21261;DHT22;10788;47.930;9.766;2023-06-26T13:01:59;31.70;90.10
21261;DHT22;10788;47.930;9.766;2023-06-26T13:04:25;31.60;90.30
21261;DHT22;10788;47.930;9.766;2023-06-26T13:06:51;31.40;90.10
21261;DHT22;10788;47.930;9.766;2023-06-26T13:09:20;31.40;90.30
21261;DHT22;10788;47.930;9.766;2023-06-26T13:11:45;31.20;90.40
21261;DHT22;10788;47.930;9.766;2023-06-26T13:14:11;31.10;91.00
21261;DHT22;10788;47.930;9.766;2023-06-26T13:16:37;30.90;90.70
21261;DHT22;10788;47.930;9.766;2023-06-26T13:19:03;30.70;91.10
21261;DHT22;10788;47.930;9.766;2023-06-26T13:21:29;30.60;92.00
21261;DHT22;10788;47.930;9.766;2023-06-26T13:23:55;30.30;96.40
21261;DHT22;10788;47.930;9.766;2023-06-26T13:26:21;29.80;98.50
21261;DHT22;10788;47.930;9.766;2023-06-26T13:28:48;29.40;99.90
21261;DHT22;10788;47.930;9.766;2023-06-26T13:31:14;29.20;99.90
21261;DHT22;10788;47.930;9.766;2023-06-26T13:33:39;29.10;99.90
21261;DHT22;10788;47.930;9.766;2023-06-26T13:36:05;29.00;99.90
21261;DHT22;10788;47.930;9.766;2023-06-26T13:38:33;28.90;99.30
21261;DHT22;10788;47.930;9.766;2023-06-26T13:41:00;29.00;99.90
21261;DHT22;10788;47.930;9.766;2023-06-26T13:43:29;28.90;99.90
21261;DHT22;10788;47.930;9.766;2023-06-26T13:45:55;28.70;99.90
21261;DHT22;10788;47.930;9.766;2023-06-26T13:48:21;28.60;99.90
21261;DHT22;10788;47.930;9.766;2023-06-26T13:50:47;28.30;99.90
21261;DHT22;10788;47.930;9.766;2023-06-26T13:53:13;27.80;99.90
21261;DHT22;10788;47.930;9.766;2023-06-26T13:55:40;27.50;99.90
21261;DHT22;10788;47.930;9.766;2023-06-26T13:58:07;27.00;99.90
21261;DHT22;10788;47.930;9.766;2023-06-26T14:00:33;26.20;99.90
21261;DHT22;10788;47.930;9.766;2023-06-26T14:03:03;25.80;99.90
21261;DHT22;10788;47.930;9.766;2023-06-26T14:05:30;25.50;99.90
21261;DHT22;10788;47.930;9.766;2023-06-26T14:07:56;25.20;99.90
21261;DHT22;10788;47.930;9.766;2023-06-26T14:10:22;25.10;99.90
21261;DHT22;10788;47.930;9.766;2023-06-26T14:12:48;25.20;99.90
21261;DHT22;10788;47.930;9.766;2023-06-26T14:15:14;25.20;99.90
21261;DHT22;10788;47.930;9.766;2023-06-26T14:17:40;25.30;99.90
21261;DHT22;10788;47.930;9.766;2023-06-26T14:20:07;25.30;99.90
21261;DHT22;10788;47.930;9.766;2023-06-26T14:22:36;25.40;99.90
21261;DHT22;10788;47.930;9.766;2023-06-26T14:25:02;25.40;99.90
21261;DHT22;10788;47.930;9.766;2023-06-26T14:27:28;25.40;99.90
21261;DHT22;10788;47.930;9.766;2023-06-26T14:29:54;25.40;99.90
21261;DHT22;10788;47.930;9.766;2023-06-26T14:32:19;25.30;99.90
21261;DHT22;10788;47.930;9.766;2023-06-26T14:34:45;25.30;99.90
21261;DHT22;10788;47.930;9.766;2023-06-26T14:37:10;25.30;99.90
21261;DHT22;10788;47.930;9.766;2023-06-26T14:39:36;25.40;99.90
21261;DHT22;10788;47.930;9.766;2023-06-26T14:42:04;25.30;99.90
21261;DHT22;10788;47.930;9.766;2023-06-26T14:44:30;25.50;99.90
21261;DHT22;10788;47.930;9.766;2023-06-26T14:46:55;25.50;99.90
21261;DHT22;10788;47.930;9.766;2023-06-26T14:49:21;25.60;99.90
21261;DHT22;10788;47.930;9.766;2023-06-26T14:51:46;25.60;99.90
21261;DHT22;10788;47.930;9.766;2023-06-26T14:54:12;25.80;99.90
21261;DHT22;10788;47.930;9.766;2023-06-26T14:56:38;26.00;99.90
21261;DHT22;10788;47.930;9.766;2023-06-26T14:59:03;26.10;99.90
21261;DHT22;10788;47.930;9.766;2023-06-26T15:01:29;26.10;99.90
21261;DHT22;10788;47.930;9.766;2023-06-26T15:03:55;26.10;99.90
21261;DHT22;10788;47.930;9.766;2023-06-26T15:06:21;26.20;99.90
21261;DHT22;10788;47.930;9.766;2023-06-26T15:08:47;26.30;99.90
21261;DHT22;10788;47.930;9.766;2023-06-26T15:11:12;26.50;99.90
21261;DHT22;10788;47.930;9.766;2023-06-26T15:13:38;26.70;99.90
21261;DHT22;10788;47.930;9.766;2023-06-26T15:16:03;26.90;99.90
21261;DHT22;10788;47.930;9.766;2023-06-26T15:18:29;27.00;99.90
21261;DHT22;10788;47.930;9.766;2023-06-26T15:20:55;27.10;99.90
21261;DHT22;10788;47.930;9.766;2023-06-26T15:23:20;27.30;99.90
21261;DHT22;10788;47.930;9.766;2023-06-26T15:25:46;27.40;99.90
21261;DHT22;10788;47.930;9.766;2023-06-26T15:28:12;27.50;99.90
21261;DHT22;10788;47.930;9.766;2023-06-26T15:30:37;27.50;99.90
21261;DHT22;10788;47.930;9.766;2023-06-26T15:33:03;27.60;99.90
21261;DHT22;10788;47.930;9.766;2023-06-26T15:35:29;27.60;99.90
21261;DHT22;10788;47.930;9.766;2023-06-26T15:37:55;27.50;99.90
21261;DHT22;10788;47.930;9.766;2023-06-26T15:40:20;27.40;99.90